createdAt,value
2022-11-24T00:01:07.438Z,7.00
2022-11-24T00:03:39.705Z,7.01
2022-11-24T00:06:16.196Z,7.01
2022-11-24T00:08:48.271Z,7.04
2022-11-24T00:11:25.996Z,7.04
2022-11-24T00:13:58.644Z,7.02
2022-11-24T00:16:35.433Z,7.03
2022-11-24T00:19:09.318Z,7.02
2022-11-24T00:21:41.268Z,7.03
2022-11-24T00:24:13.229Z,7.05
2022-11-24T00:26:45.191Z,7.03
2022-11-24T00:29:17.166Z,7.03
2022-11-24T00:31:49.101Z,7.03
2022-11-24T00:34:21.098Z,7.00
2022-11-24T00:36:53.005Z,7.01
2022-11-24T00:39:25.924Z,7.00
2022-11-24T00:41:57.855Z,6.97
2022-11-24T00:44:30.054Z,6.96
2022-11-24T00:47:02.137Z,6.95
2022-11-24T00:49:34.217Z,6.93
2022-11-24T00:52:06.371Z,6.92
2022-11-24T00:54:38.320Z,6.91
2022-11-24T00:57:10.379Z,6.90
2022-11-24T00:59:42.285Z,6.89
2022-11-24T01:02:14.232Z,6.89
2022-11-24T01:04:46.310Z,6.87
2022-11-24T01:07:18.273Z,6.84
2022-11-24T01:09:50.322Z,6.84
2022-11-24T01:12:22.255Z,6.82
2022-11-24T01:14:54.320Z,6.80
2022-11-24T01:17:26.942Z,6.81
2022-11-24T01:19:59.003Z,6.81
2022-11-24T01:22:31.015Z,6.80
2022-11-24T01:25:03.154Z,6.82
2022-11-24T01:27:35.347Z,6.80
2022-11-24T01:30:08.304Z,6.81
2022-11-24T01:32:40.283Z,6.81
2022-11-24T01:35:12.195Z,6.81
2022-11-24T01:37:44.343Z,6.81
2022-11-24T01:40:16.478Z,6.81
2022-11-24T01:42:50.662Z,6.81
2022-11-24T01:45:40.762Z,6.80
2022-11-24T01:48:27.484Z,6.79
2022-11-24T01:51:24.389Z,6.78
2022-11-24T01:54:09.423Z,6.79
2022-11-24T01:56:44.235Z,6.79
2022-11-24T01:59:17.802Z,6.79
2022-11-24T02:01:51.204Z,6.80
2022-11-24T02:04:26.406Z,6.79
2022-11-24T02:06:59.979Z,6.81
2022-11-24T02:09:43.813Z,6.84
2022-11-24T02:12:15.935Z,6.87
2022-11-24T02:14:48.168Z,6.92
2022-11-24T02:17:20.268Z,6.95
2022-11-24T02:20:00.007Z,7.00
2022-11-24T02:23:02.918Z,7.03
2022-11-24T02:25:46.469Z,7.07
2022-11-24T02:28:20.359Z,7.09
2022-11-24T02:30:53.038Z,7.10
2022-11-24T02:33:26.099Z,7.08
2022-11-24T02:35:58.281Z,7.09
2022-11-24T02:38:35.056Z,7.07
2022-11-24T02:41:11.448Z,7.07
2022-11-24T02:43:48.617Z,7.07
2022-11-24T02:46:21.477Z,7.05
2022-11-24T02:48:53.563Z,7.05
2022-11-24T02:51:25.608Z,7.03
2022-11-24T02:53:57.641Z,7.01
2022-11-24T02:56:29.569Z,7.01
2022-11-24T02:59:01.656Z,7.00
2022-11-24T03:01:33.671Z,7.02
2022-11-24T03:04:05.815Z,7.02
2022-11-24T03:06:38.113Z,7.02
2022-11-24T03:09:11.417Z,7.03
2022-11-24T03:11:43.409Z,7.02
2022-11-24T03:14:15.519Z,7.01
2022-11-24T03:16:47.466Z,6.99
2022-11-24T03:19:19.464Z,6.98
2022-11-24T03:21:51.557Z,6.96
2022-11-24T03:24:23.592Z,6.96
2022-11-24T03:26:55.556Z,6.95
2022-11-24T03:29:27.651Z,6.95
2022-11-24T03:31:59.703Z,6.97
2022-11-24T03:34:33.151Z,7.00
2022-11-24T03:37:05.354Z,7.02
2022-11-24T03:39:37.242Z,7.06
2022-11-24T03:42:09.239Z,7.08
2022-11-24T03:44:41.690Z,7.10
2022-11-24T03:47:13.687Z,7.13
2022-11-24T03:49:45.789Z,7.17
2022-11-24T03:52:17.935Z,7.19
2022-11-24T03:54:49.829Z,7.18
2022-11-24T03:57:21.852Z,7.23
2022-11-24T03:59:53.923Z,7.23
2022-11-24T04:02:25.897Z,7.25
2022-11-24T04:04:59.156Z,7.28
2022-11-24T04:07:31.137Z,7.31
2022-11-24T04:10:03.359Z,7.33
2022-11-24T04:12:44.495Z,7.35
2022-11-24T04:15:18.819Z,7.38
2022-11-24T04:17:51.053Z,7.39
2022-11-24T04:20:23.287Z,7.42
2022-11-24T04:22:55.379Z,7.42
2022-11-24T04:25:27.397Z,7.41
2022-11-24T04:27:59.339Z,7.40
2022-11-24T04:30:31.356Z,7.40
2022-11-24T04:33:03.353Z,7.38
2022-11-24T04:35:35.420Z,7.40
2022-11-24T04:38:07.527Z,7.41
2022-11-24T04:40:39.438Z,7.41
2022-11-24T04:43:12.143Z,7.41
2022-11-24T04:45:44.095Z,7.43
2022-11-24T04:48:15.944Z,7.44
2022-11-24T04:50:48.152Z,7.46
2022-11-24T04:53:20.303Z,7.47
2022-11-24T04:55:52.200Z,7.47
2022-11-24T04:58:24.134Z,7.48
2022-11-24T05:00:56.051Z,7.49
2022-11-24T05:03:27.986Z,7.50
2022-11-24T05:06:00.113Z,7.51
2022-11-24T05:08:32.258Z,7.53
2022-11-24T05:11:05.842Z,7.53
2022-11-24T05:13:37.653Z,7.54
2022-11-24T05:16:09.630Z,7.53
2022-11-24T05:18:41.630Z,7.55
2022-11-24T05:21:13.494Z,7.56
2022-11-24T05:23:45.631Z,7.58
2022-11-24T05:26:17.481Z,7.61
2022-11-24T05:28:49.275Z,7.62
2022-11-24T05:31:21.197Z,7.64
2022-11-24T05:33:53.089Z,7.66
2022-11-24T05:36:43.661Z,7.66
2022-11-24T05:39:15.493Z,7.66
2022-11-24T05:41:47.418Z,7.65
2022-11-24T05:44:19.241Z,7.67
2022-11-24T05:46:51.370Z,7.69
2022-11-24T05:49:23.206Z,7.70
2022-11-24T05:51:55.176Z,7.71
2022-11-24T05:54:27.055Z,7.74
2022-11-24T05:56:59.069Z,7.74
2022-11-24T05:59:30.939Z,7.76
2022-11-24T06:02:03.459Z,7.79
2022-11-24T06:04:37.080Z,7.80
2022-11-24T06:07:10.499Z,7.82
2022-11-24T06:09:45.304Z,7.82
2022-11-24T06:12:17.364Z,7.79
2022-11-24T06:14:49.185Z,7.80
2022-11-24T06:17:20.995Z,7.81
2022-11-24T06:19:52.855Z,7.83
2022-11-24T06:22:24.886Z,7.86
2022-11-24T06:24:56.771Z,7.90
2022-11-24T06:27:28.808Z,7.91
2022-11-24T06:30:00.759Z,7.93
2022-11-24T06:32:32.741Z,7.92
2022-11-24T06:35:04.885Z,7.90
2022-11-24T06:37:37.358Z,7.88
2022-11-24T06:40:09.749Z,7.88
2022-11-24T06:42:41.695Z,7.88
2022-11-24T06:45:13.595Z,7.85
2022-11-24T06:47:45.777Z,7.83
2022-11-24T06:50:17.707Z,7.80
2022-11-24T06:52:49.649Z,7.78
2022-11-24T06:55:21.476Z,7.78
2022-11-24T06:57:53.332Z,7.77
2022-11-24T07:00:25.262Z,7.75
2022-11-24T07:02:58.554Z,7.74
2022-11-24T07:05:30.701Z,7.73
2022-11-24T07:08:02.562Z,7.73
2022-11-24T07:10:34.498Z,7.69
2022-11-24T07:13:09.198Z,7.66
2022-11-24T07:15:41.038Z,7.65
2022-11-24T07:18:12.865Z,7.66
2022-11-24T07:20:44.805Z,7.66
2022-11-24T07:23:16.621Z,7.66
2022-11-24T07:25:48.594Z,7.65
2022-11-24T07:28:20.395Z,7.65
2022-11-24T07:30:52.422Z,7.64
2022-11-24T07:33:27.812Z,7.63
2022-11-24T07:36:00.448Z,7.63
2022-11-24T07:38:33.175Z,7.62
2022-11-24T07:41:08.293Z,7.62
2022-11-24T07:43:40.348Z,7.63
2022-11-24T07:46:13.903Z,7.63
2022-11-24T07:48:46.396Z,7.65
2022-11-24T07:51:18.336Z,7.68
2022-11-24T07:53:50.163Z,7.69
2022-11-24T07:56:21.940Z,7.70
2022-11-24T07:58:53.855Z,7.70
2022-11-24T08:01:25.852Z,7.71
2022-11-24T08:03:57.767Z,7.74
2022-11-24T08:06:37.499Z,7.77
2022-11-24T08:09:12.633Z,7.83
2022-11-24T08:11:44.691Z,7.85
2022-11-24T08:14:16.702Z,7.89
2022-11-24T08:16:48.641Z,7.95
2022-11-24T08:19:21.924Z,7.97
2022-11-24T08:21:53.763Z,8.03
2022-11-24T08:24:27.111Z,8.06
2022-11-24T08:26:59.469Z,8.11
2022-11-24T08:29:31.815Z,8.13
2022-11-24T08:32:03.998Z,8.17
2022-11-24T08:34:36.044Z,8.19
2022-11-24T08:37:08.129Z,8.21
2022-11-24T08:39:40.010Z,8.21
2022-11-24T08:42:11.940Z,8.22
2022-11-24T08:44:43.888Z,8.22
2022-11-24T08:47:16.146Z,8.26
2022-11-24T08:49:48.018Z,8.29
2022-11-24T08:52:19.823Z,8.32
2022-11-24T08:54:51.706Z,8.35
2022-11-24T08:57:24.687Z,8.40
2022-11-24T08:59:56.647Z,8.46
2022-11-24T09:02:28.715Z,8.49
2022-11-24T09:05:00.613Z,8.53
2022-11-24T09:07:32.845Z,8.57
2022-11-24T09:10:05.141Z,8.63
2022-11-24T09:12:37.044Z,8.69
2022-11-24T09:15:09.105Z,8.71
2022-11-24T09:17:41.026Z,8.73
2022-11-24T09:20:12.938Z,8.76
2022-11-24T09:22:44.916Z,8.79
2022-11-24T09:25:17.281Z,8.83
2022-11-24T09:27:50.547Z,8.86
2022-11-24T09:30:23.210Z,8.88
2022-11-24T09:32:58.201Z,8.91
2022-11-24T09:35:30.039Z,8.95
2022-11-24T09:38:02.146Z,8.98
2022-11-24T09:40:34.078Z,9.02
2022-11-24T09:43:12.859Z,9.06
2022-11-24T09:46:06.196Z,9.10
2022-11-24T09:48:40.946Z,9.17
2022-11-24T09:51:14.453Z,9.20
2022-11-24T09:53:53.611Z,9.23
2022-11-24T09:56:28.534Z,9.25
2022-11-24T09:59:03.768Z,9.30
2022-11-24T10:01:37.332Z,9.37
2022-11-24T10:04:22.914Z,9.43
2022-11-24T10:07:05.963Z,9.49
2022-11-24T10:09:37.740Z,9.58
2022-11-24T10:12:38.039Z,9.61
2022-11-24T10:15:33.889Z,9.67
2022-11-24T10:18:42.506Z,9.69
2022-11-24T10:21:45.204Z,9.70
2022-11-24T10:24:33.111Z,9.70
2022-11-24T10:27:17.412Z,9.70
2022-11-24T10:29:51.967Z,9.70
2022-11-24T10:32:25.783Z,9.70
2022-11-24T10:35:00.990Z,9.73
2022-11-24T10:37:36.024Z,9.75
2022-11-24T10:40:49.152Z,9.79
2022-11-24T10:43:18.435Z,9.84
2022-11-24T10:45:50.323Z,9.89
2022-11-24T10:48:25.500Z,9.95
2022-11-24T10:51:34.881Z,10.01
2022-11-24T10:54:16.496Z,10.05
2022-11-24T10:56:51.375Z,10.08
2022-11-24T10:59:30.689Z,10.12
2022-11-24T11:02:14.321Z,10.14
2022-11-24T11:04:46.268Z,10.18
2022-11-24T11:07:21.239Z,10.22
2022-11-24T11:10:20.473Z,10.26
2022-11-24T11:12:52.556Z,10.31
2022-11-24T11:15:31.323Z,10.35
2022-11-24T11:18:04.255Z,10.38
2022-11-24T11:20:36.660Z,10.42
2022-11-24T11:23:20.559Z,10.45
2022-11-24T11:26:21.434Z,10.46
2022-11-24T11:35:17.336Z,10.43
2022-11-24T11:37:49.858Z,10.43
2022-11-24T11:40:27.355Z,10.44
2022-11-24T11:43:04.005Z,10.44
2022-11-24T11:45:37.405Z,10.44
2022-11-24T11:48:37.004Z,10.46
2022-11-24T11:51:45.290Z,10.47
2022-11-24T11:54:26.566Z,10.50
2022-11-24T11:57:16.398Z,10.53
2022-11-24T12:00:03.624Z,10.58
2022-11-24T12:02:58.505Z,10.66
2022-11-24T12:05:47.590Z,10.71
2022-11-24T12:08:29.396Z,10.74
2022-11-24T12:11:42.433Z,10.76
2022-11-24T12:14:52.045Z,10.78
2022-11-24T12:17:35.265Z,10.78
2022-11-24T12:20:19.212Z,10.78
2022-11-24T12:23:11.181Z,10.81
2022-11-24T12:25:49.801Z,10.83
2022-11-24T12:28:49.440Z,10.84
2022-11-24T12:31:33.230Z,10.86
2022-11-24T12:34:23.293Z,10.89
2022-11-24T12:37:18.642Z,10.92
2022-11-24T12:40:02.371Z,10.90
2022-11-24T12:42:57.528Z,10.92
2022-11-24T12:45:37.835Z,10.95
2022-11-24T12:48:18.507Z,10.99
2022-11-24T12:50:52.244Z,11.01
2022-11-24T12:53:31.101Z,11.03
2022-11-24T12:56:09.862Z,11.05
2022-11-24T12:58:55.780Z,11.06
2022-11-24T13:01:38.706Z,11.07
2022-11-24T13:04:30.730Z,11.05
2022-11-24T13:07:15.476Z,11.06
2022-11-24T13:10:46.560Z,11.09
2022-11-24T13:13:16.472Z,11.12
2022-11-24T13:18:53.343Z,11.09
2022-11-24T13:21:30.859Z,11.09
2022-11-24T13:24:20.726Z,11.09
2022-11-24T13:27:15.383Z,11.09
2022-11-24T13:29:48.821Z,11.10
2022-11-24T13:32:23.627Z,11.12
2022-11-24T13:35:03.269Z,11.11
2022-11-24T13:37:36.550Z,11.11
2022-11-24T13:40:11.323Z,11.12
2022-11-24T13:43:04.090Z,11.11
2022-11-24T13:45:38.893Z,11.09
2022-11-24T13:48:19.808Z,11.11
2022-11-24T13:50:55.084Z,11.09
2022-11-24T13:53:28.761Z,11.08
2022-11-24T13:56:11.433Z,11.08
2022-11-24T13:58:45.418Z,11.09
2022-11-24T14:01:19.509Z,11.08
2022-11-24T14:04:28.681Z,11.07
2022-11-24T14:06:52.244Z,11.08
2022-11-24T14:09:26.990Z,11.07
2022-11-24T14:12:20.706Z,11.05
2022-11-24T14:14:55.707Z,11.04
2022-11-24T14:17:28.708Z,11.02
2022-11-24T14:20:17.006Z,11.01
2022-11-24T14:22:48.865Z,11.02
2022-11-24T14:25:30.157Z,11.02
2022-11-24T14:28:02.347Z,11.04
2022-11-24T14:30:34.276Z,11.03
2022-11-24T14:33:12.161Z,11.02
2022-11-24T14:35:45.912Z,11.02
2022-11-24T14:38:17.868Z,11.03
2022-11-24T14:40:51.867Z,11.04
2022-11-24T14:43:29.643Z,11.05
2022-11-24T14:46:12.191Z,11.06
2022-11-24T14:48:51.689Z,11.07
2022-11-24T14:51:34.642Z,11.06
2022-11-24T14:54:14.925Z,11.07
2022-11-24T14:56:58.557Z,11.08
2022-11-24T14:59:39.472Z,11.08
2022-11-24T15:02:44.617Z,11.07
2022-11-24T15:05:16.915Z,11.05
2022-11-24T15:07:50.649Z,11.03
2022-11-24T15:10:35.442Z,11.01
2022-11-24T15:13:22.388Z,11.01
2022-11-24T15:16:02.835Z,10.99
2022-11-24T15:18:45.188Z,10.98
2022-11-24T15:21:30.484Z,10.98
2022-11-24T15:24:20.431Z,10.96
2022-11-24T15:27:00.066Z,10.96
2022-11-24T15:29:31.974Z,10.94
2022-11-24T15:32:14.104Z,10.94
2022-11-24T15:34:46.056Z,10.91
2022-11-24T15:37:17.964Z,10.87
2022-11-24T15:39:50.052Z,10.84
2022-11-24T15:42:21.902Z,10.84
2022-11-24T15:44:53.774Z,10.85
2022-11-24T15:47:25.607Z,10.86
2022-11-24T15:49:57.530Z,10.86
2022-11-24T15:52:30.477Z,10.88
2022-11-24T15:55:02.379Z,10.88
2022-11-24T15:57:34.249Z,10.89
2022-11-24T16:00:06.826Z,10.90
2022-11-24T16:02:44.079Z,10.92
2022-11-24T16:05:16.981Z,10.91
2022-11-24T16:07:49.082Z,10.89
2022-11-24T16:10:26.211Z,10.86
2022-11-24T16:12:58.172Z,10.83
2022-11-24T16:15:30.144Z,10.78
2022-11-24T16:18:03.569Z,10.73
2022-11-24T16:20:36.126Z,10.70
2022-11-24T16:23:08.121Z,10.66
2022-11-24T16:25:39.933Z,10.61
2022-11-24T16:28:11.859Z,10.55
2022-11-24T16:30:48.532Z,10.52
2022-11-24T16:33:20.476Z,10.48
2022-11-24T16:35:52.333Z,10.46
2022-11-24T16:38:24.349Z,10.41
2022-11-24T16:40:56.836Z,10.38
2022-11-24T16:43:30.175Z,10.35
2022-11-24T16:46:17.294Z,10.32
2022-11-24T16:48:51.372Z,10.30
2022-11-24T16:51:23.785Z,10.27
2022-11-24T16:53:59.825Z,10.25
2022-11-24T16:56:32.005Z,10.23
2022-11-24T16:59:04.680Z,10.20
2022-11-24T17:01:37.227Z,10.18
2022-11-24T17:04:12.596Z,10.17
2022-11-24T17:06:44.808Z,10.15
2022-11-24T17:09:17.641Z,10.13
2022-11-24T17:11:49.539Z,10.11
2022-11-24T17:14:21.368Z,10.10
2022-11-24T17:16:53.212Z,10.08
2022-11-24T17:19:25.363Z,10.06
2022-11-24T17:21:57.720Z,10.04
2022-11-24T17:24:29.612Z,10.02
2022-11-24T17:27:01.516Z,9.99
2022-11-24T17:29:33.478Z,9.96
2022-11-24T17:32:05.592Z,9.93
2022-11-24T17:34:37.576Z,9.88
2022-11-24T17:37:09.440Z,9.85
2022-11-24T17:39:42.398Z,9.85
2022-11-24T17:42:14.338Z,9.82
2022-11-24T17:44:46.247Z,9.77
2022-11-24T17:47:18.107Z,9.72
2022-11-24T17:49:49.934Z,9.71
2022-11-24T17:52:21.880Z,9.66
2022-11-24T17:54:53.681Z,9.66
2022-11-24T17:57:26.274Z,9.64
2022-11-24T17:59:58.118Z,9.62
2022-11-24T18:02:30.144Z,9.61
2022-11-24T18:05:01.977Z,9.59
2022-11-24T18:07:36.536Z,9.56
2022-11-24T18:10:08.949Z,9.53
2022-11-24T18:12:41.090Z,9.50
2022-11-24T18:15:12.942Z,9.49
2022-11-24T18:17:44.763Z,9.46
2022-11-24T18:20:16.687Z,9.45
2022-11-24T18:23:05.938Z,9.46
2022-11-24T18:25:38.134Z,9.46
2022-11-24T18:28:09.932Z,9.43
2022-11-24T18:30:41.752Z,9.44
2022-11-24T18:33:13.803Z,9.42
2022-11-24T18:36:07.001Z,9.41
2022-11-24T18:38:38.912Z,9.40
2022-11-24T18:41:12.889Z,9.38
2022-11-24T18:43:44.862Z,9.38
2022-11-24T18:46:17.606Z,9.36
2022-11-24T18:48:51.914Z,9.35
2022-11-24T18:51:23.793Z,9.32
2022-11-24T18:53:57.856Z,9.31
2022-11-24T18:56:30.119Z,9.29
2022-11-24T18:59:02.031Z,9.25
2022-11-24T19:01:34.067Z,9.24
2022-11-24T19:04:05.868Z,9.23
2022-11-24T19:06:38.036Z,9.20
2022-11-24T19:09:18.394Z,9.19
2022-11-24T19:11:50.519Z,9.17
2022-11-24T19:14:22.422Z,9.17
2022-11-24T19:16:55.117Z,9.15
2022-11-24T19:19:28.876Z,9.16
2022-11-24T19:22:01.186Z,9.14
2022-11-24T19:24:33.315Z,9.12
2022-11-24T19:27:05.370Z,9.12
2022-11-24T19:29:42.853Z,9.10
2022-11-24T19:32:15.337Z,9.10
2022-11-24T19:34:47.156Z,9.09
2022-11-24T19:37:19.022Z,9.07
2022-11-24T19:39:50.921Z,9.05
2022-11-24T19:42:22.762Z,9.05
2022-11-24T19:44:56.736Z,9.04
2022-11-24T19:47:29.050Z,9.03
2022-11-24T19:50:02.140Z,9.02
2022-11-24T19:52:35.729Z,9.02
2022-11-24T19:55:07.804Z,9.01
2022-11-24T19:57:39.682Z,9.00
2022-11-24T20:00:12.328Z,8.99
2022-11-24T20:02:44.236Z,8.99
2022-11-24T20:05:16.208Z,9.00
2022-11-24T20:07:48.099Z,9.00
2022-11-24T20:10:20.103Z,9.01
2022-11-24T20:12:51.927Z,9.02
2022-11-24T20:15:23.690Z,9.02
2022-11-24T20:17:55.570Z,9.05
2022-11-24T20:20:27.455Z,9.05
2022-11-24T20:22:59.500Z,9.05
2022-11-24T20:25:31.405Z,9.05
2022-11-24T20:28:03.427Z,9.03
2022-11-24T20:30:35.305Z,9.02
2022-11-24T20:33:07.088Z,9.00
2022-11-24T20:35:38.929Z,8.98
2022-11-24T20:38:11.885Z,8.95
2022-11-24T20:40:43.747Z,8.92
2022-11-24T20:43:15.620Z,8.90
2022-11-24T20:45:47.420Z,8.87
2022-11-24T20:48:19.297Z,8.84
2022-11-24T20:50:51.585Z,8.80
2022-11-24T20:53:23.777Z,8.77
2022-11-24T20:56:06.112Z,8.72
2022-11-24T20:58:39.141Z,8.68
2022-11-24T21:01:13.548Z,8.65
2022-11-24T21:03:46.657Z,8.62
2022-11-24T21:06:18.481Z,8.56
2022-11-24T21:08:50.930Z,8.54
2022-11-24T21:11:23.483Z,8.52
2022-11-24T21:13:55.864Z,8.48
2022-11-24T21:16:30.501Z,8.44
2022-11-24T21:19:06.039Z,8.40
2022-11-24T21:21:38.511Z,8.36
2022-11-24T21:24:23.429Z,8.30
2022-11-24T21:26:55.234Z,8.26
2022-11-24T21:29:27.111Z,8.22
2022-11-24T21:31:58.969Z,8.17
2022-11-24T21:34:30.875Z,8.13
2022-11-24T21:37:02.708Z,8.10
2022-11-24T21:39:36.422Z,8.07
2022-11-24T21:42:08.259Z,8.05
2022-11-24T21:44:40.131Z,7.99
2022-11-24T21:47:12.221Z,7.95
2022-11-24T21:49:44.372Z,7.89
2022-11-24T21:52:16.181Z,7.85
2022-11-24T21:54:48.008Z,7.83
2022-11-24T21:57:19.858Z,7.79
2022-11-24T21:59:52.214Z,7.76
2022-11-24T22:02:24.121Z,7.73
2022-11-24T22:04:55.996Z,7.70
2022-11-24T22:07:32.316Z,7.67
2022-11-24T22:10:04.728Z,7.63
2022-11-24T22:12:36.606Z,7.62
2022-11-24T22:15:09.071Z,7.62
2022-11-24T22:17:40.887Z,7.62
2022-11-24T22:20:12.851Z,7.60
2022-11-24T22:22:44.821Z,7.60
2022-11-24T22:25:16.785Z,7.59
2022-11-24T22:27:48.671Z,7.57
2022-11-24T22:30:20.488Z,7.56
2022-11-24T22:32:53.638Z,7.54
2022-11-24T22:35:25.499Z,7.53
2022-11-24T22:37:57.319Z,7.54
2022-11-24T22:40:29.319Z,7.52
2022-11-24T22:43:01.238Z,7.50
2022-11-24T22:45:35.223Z,7.48
2022-11-24T22:48:07.043Z,7.47
2022-11-24T22:50:38.826Z,7.46
2022-11-24T22:53:10.718Z,7.45
2022-11-24T22:55:42.555Z,7.42
2022-11-24T22:58:14.395Z,7.42
2022-11-24T23:00:46.214Z,7.41
2022-11-24T23:03:18.263Z,7.41
2022-11-24T23:05:50.268Z,7.41
2022-11-24T23:08:22.081Z,7.41
2022-11-24T23:11:07.787Z,7.40
2022-11-24T23:13:40.149Z,7.38
2022-11-24T23:16:14.443Z,7.37
2022-11-24T23:18:52.405Z,7.33
2022-11-24T23:21:28.041Z,7.31
2022-11-24T23:24:01.800Z,7.27
2022-11-24T23:26:37.303Z,7.24
2022-11-24T23:29:10.156Z,7.21
2022-11-24T23:31:42.303Z,7.18
2022-11-24T23:34:14.281Z,7.16
2022-11-24T23:36:46.206Z,7.13
2022-11-24T23:39:18.119Z,7.09
2022-11-24T23:41:49.926Z,7.05
2022-11-24T23:44:22.048Z,7.02
2022-11-24T23:46:54.112Z,6.99
2022-11-24T23:49:25.959Z,6.96
2022-11-24T23:51:57.811Z,6.93
2022-11-24T23:54:29.599Z,6.94
2022-11-24T23:57:01.436Z,6.94
2022-11-24T23:59:33.334Z,6.95
